Time;durP1;ratioP1;P1;durP2;ratioP2;P2;SDS_P1;SDS_P2;PMS_P1;PMS_P2;Temp;Humidity;BMP_temperature;BMP_pressure;BME280_temperature;BME280_humidity;BME280_pressure;Samples;Min_cycle;Max_cycle;Signal;HPM_P1;HPM_P2
2022/04/03 00:02:03;;;;;;;9.85;7.65;;;5.60;36.60;;;;;;4999653;28;20569;-73
2022/04/03 00:04:29;;;;;;;8.60;6.75;;;5.50;36.40;;;;;;5003394;28;20465;-73
2022/04/03 00:06:55;;;;;;;8.18;7.28;;;5.50;36.50;;;;;;4999006;28;20033;-73
2022/04/03 00:09:21;;;;;;;10.55;7.50;;;5.40;36.40;;;;;;5007673;28;20033;-73
2022/04/03 00:11:46;;;;;;;9.93;7.47;;;5.40;36.50;;;;;;4994659;28;20379;-73
2022/04/03 00:14:12;;;;;;;8.57;7.55;;;5.40;36.60;;;;;;5004345;28;20044;-73
2022/04/03 00:16:39;;;;;;;9.35;7.50;;;5.40;36.70;;;;;;5012522;28;20025;-73
2022/04/03 00:19:05;;;;;;;7.93;7.13;;;5.30;36.60;;;;;;5011150;28;20046;-71
2022/04/03 00:21:31;;;;;;;11.07;7.90;;;5.30;36.70;;;;;;5024159;28;20025;-71
2022/04/03 00:23:57;;;;;;;9.32;7.45;;;5.30;36.80;;;;;;5012858;28;20029;-72
2022/04/03 00:26:22;;;;;;;7.88;7.07;;;5.20;36.70;;;;;;5007257;28;20389;-72
2022/04/03 00:28:48;;;;;;;8.30;7.40;;;5.20;36.70;;;;;;4998896;28;20042;-72
2022/04/03 00:31:14;;;;;;;8.00;6.93;;;5.20;36.90;;;;;;5009850;28;20053;-72
2022/04/03 00:33:40;;;;;;;7.07;6.38;;;5.20;36.90;;;;;;4993868;28;20392;-72
2022/04/03 00:36:06;;;;;;;9.60;7.68;;;5.10;36.80;;;;;;5005745;28;20048;-72
2022/04/03 00:38:32;;;;;;;7.95;7.15;;;5.10;36.90;;;;;;5006240;28;20057;-72
2022/04/03 00:41:01;;;;;;;9.57;7.60;;;5.10;36.90;;;;;;5007141;28;20521;-73
2022/04/03 00:43:27;;;;;;;7.97;6.13;;;5.10;37.00;;;;;;5002375;28;20043;-74
2022/04/03 00:45:53;;;;;;;10.27;7.85;;;5.10;37.10;;;;;;4980696;28;20042;-74
2022/04/03 00:48:19;;;;;;;8.07;6.65;;;5.10;37.10;;;;;;5005929;28;20034;-74
2022/04/03 00:50:45;;;;;;;9.00;7.90;;;5.10;37.10;;;;;;4999425;28;20029;-74
2022/04/03 00:53:12;;;;;;;9.23;6.82;;;5.00;37.00;;;;;;5007377;28;20033;-74
2022/04/03 00:55:42;;;;;;;7.20;6.50;;;5.00;37.10;;;;;;5005004;28;20092;-74
2022/04/03 00:58:11;;;;;;;9.20;8.27;;;5.00;37.20;;;;;;4990624;28;20027;-74
2022/04/03 01:00:37;;;;;;;7.50;6.70;;;4.90;37.00;;;;;;5006561;28;20040;-74
2022/04/03 01:03:04;;;;;;;7.90;7.10;;;4.90;37.10;;;;;;5006238;28;20485;-74
2022/04/03 01:05:29;;;;;;;8.82;7.95;;;4.80;36.90;;;;;;5006129;28;20113;-72
2022/04/03 01:07:55;;;;;;;10.38;7.85;;;4.90;37.20;;;;;;5004039;28;20515;-73
2022/04/03 01:10:22;;;;;;;7.50;6.75;;;4.80;37.10;;;;;;5006935;28;20030;-72
2022/04/03 01:12:48;;;;;;;7.95;7.15;;;4.80;37.20;;;;;;4992326;28;20405;-72
2022/04/03 01:15:16;;;;;;;7.88;6.75;;;4.70;37.10;;;;;;5001685;28;20038;-72
2022/04/03 01:17:43;;;;;;;9.07;7.55;;;4.70;37.20;;;;;;5000935;28;20045;-74
2022/04/03 01:20:10;;;;;;;9.57;7.57;;;4.60;37.00;;;;;;4986922;28;20026;-72
2022/04/03 01:22:36;;;;;;;8.55;7.32;;;4.70;37.30;;;;;;5001657;28;20111;-72
2022/04/03 01:25:03;;;;;;;8.32;7.53;;;4.60;37.20;;;;;;4988435;28;20511;-72
2022/04/03 01:27:29;;;;;;;9.68;7.43;;;4.60;37.30;;;;;;4991936;28;20032;-72
2022/04/03 01:29:57;;;;;;;8.88;7.28;;;4.60;37.30;;;;;;5011297;28;20026;-74
2022/04/03 01:32:23;;;;;;;9.23;7.18;;;4.60;37.40;;;;;;5008236;28;20400;-72
2022/04/03 01:34:50;;;;;;;9.57;7.60;;;4.60;37.50;;;;;;5006378;28;20048;-72
2022/04/03 01:37:16;;;;;;;9.20;7.53;;;4.50;37.30;;;;;;5010956;28;20057;-72
2022/04/03 01:39:42;;;;;;;9.55;7.40;;;4.60;37.50;;;;;;5005394;28;20084;-72
2022/04/03 01:42:09;;;;;;;9.60;7.15;;;4.50;37.40;;;;;;5006518;28;20173;-72
2022/04/03 01:44:35;;;;;;;7.82;6.82;;;4.50;37.40;;;;;;4988402;28;20400;-72
2022/04/03 01:47:01;;;;;;;8.02;6.63;;;4.50;37.40;;;;;;5005878;28;20036;-72
2022/04/03 01:49:26;;;;;;;8.40;7.53;;;4.50;37.50;;;;;;5005500;28;20195;-72
2022/04/03 01:51:52;;;;;;;11.32;8.05;;;4.50;37.50;;;;;;5013910;28;20030;-72
2022/04/03 01:54:18;;;;;;;8.18;7.18;;;4.50;37.50;;;;;;5016381;28;20777;-72
2022/04/03 01:56:45;;;;;;;9.93;8.18;;;4.40;37.30;;;;;;5014815;28;20068;-72
2022/04/03 01:59:11;;;;;;;10.00;7.70;;;4.40;37.40;;;;;;5010564;28;20025;-72
2022/04/03 02:01:37;;;;;;;7.90;6.72;;;4.40;37.40;;;;;;5012911;28;20030;-72
2022/04/03 02:04:03;;;;;;;7.78;6.63;;;4.40;37.40;;;;;;5007988;28;20030;-72
2022/04/03 02:06:31;;;;;;;7.70;6.90;;;4.40;37.50;;;;;;5010864;28;20034;-72
2022/04/03 02:08:58;;;;;;;9.43;7.15;;;4.40;37.50;;;;;;5009747;28;20046;-73
2022/04/03 02:11:24;;;;;;;9.10;6.65;;;4.40;37.60;;;;;;4972587;28;20430;-72
2022/04/03 02:13:50;;;;;;;8.95;7.10;;;4.30;37.40;;;;;;5008485;28;20045;-73
2022/04/03 02:16:16;;;;;;;9.43;6.93;;;4.30;37.50;;;;;;5009794;28;20034;-72
2022/04/03 02:18:42;;;;;;;7.53;6.78;;;4.30;37.50;;;;;;5006722;28;20038;-73
2022/04/03 02:21:09;;;;;;;7.97;7.18;;;4.30;37.50;;;;;;5008711;28;20057;-72
2022/04/03 02:23:34;;;;;;;7.97;7.15;;;4.20;37.40;;;;;;5007975;28;20034;-73
2022/04/03 02:26:00;;;;;;;7.88;7.13;;;4.20;37.50;;;;;;5006836;28;20203;-72
2022/04/03 02:28:26;;;;;;;9.48;6.80;;;4.20;37.60;;;;;;5015152;28;20129;-72
2022/04/03 02:30:52;;;;;;;6.40;5.80;;;4.20;37.60;;;;;;5014595;28;20029;-72
2022/04/03 02:33:18;;;;;;;7.35;6.65;;;4.10;37.50;;;;;;5009614;28;20440;-72
2022/04/03 02:35:44;;;;;;;7.05;6.35;;;4.10;37.60;;;;;;5012629;28;20469;-72
2022/04/03 02:38:10;;;;;;;8.15;6.75;;;4.10;37.60;;;;;;4999724;28;20064;-72
2022/04/03 02:40:36;;;;;;;7.15;6.40;;;4.10;37.70;;;;;;4999966;28;20655;-72
2022/04/03 02:43:02;;;;;;;8.65;6.53;;;4.00;37.60;;;;;;4989881;28;20026;-72
2022/04/03 02:45:28;;;;;;;8.02;6.75;;;4.00;37.70;;;;;;5008114;28;20366;-72
2022/04/03 02:47:55;;;;;;;7.90;6.22;;;4.00;37.70;;;;;;5005867;28;20056;-72
2022/04/03 02:50:23;;;;;;;7.38;5.82;;;4.00;37.80;;;;;;4990113;28;20081;-72
2022/04/03 02:52:49;;;;;;;7.78;5.75;;;3.90;37.70;;;;;;5009331;28;20482;-72
2022/04/03 02:55:20;;;;;;;7.53;5.75;;;3.90;37.80;;;;;;4994970;28;20128;-72
2022/04/03 02:57:46;;;;;;;7.40;6.70;;;3.80;38.20;;;;;;4997731;28;20025;-71
2022/04/03 03:00:14;;;;;;;8.95;6.47;;;3.90;37.80;;;;;;5008431;28;20038;-71
2022/04/03 03:02:42;;;;;;;6.45;5.82;;;3.90;37.90;;;;;;4997276;28;20026;-73
2022/04/03 03:05:08;;;;;;;7.93;6.18;;;3.90;37.90;;;;;;4998553;28;20040;-72
2022/04/03 03:07:38;;;;;;;7.70;5.85;;;3.80;37.80;;;;;;5001682;28;20069;-74
2022/04/03 03:10:06;;;;;;;6.47;5.75;;;3.80;37.80;;;;;;5007623;28;20029;-72
2022/04/03 03:12:32;;;;;;;6.80;5.97;;;3.80;37.80;;;;;;4997512;28;20029;-74
2022/04/03 03:14:59;;;;;;;7.07;5.93;;;3.80;37.90;;;;;;5011353;28;20038;-74
2022/04/03 03:17:26;;;;;;;7.25;6.25;;;3.80;38.00;;;;;;4994236;28;20037;-74
2022/04/03 03:19:52;;;;;;;6.70;5.85;;;3.70;37.80;;;;;;5010831;28;20030;-73
2022/04/03 03:22:19;;;;;;;8.70;6.10;;;3.70;37.90;;;;;;5014751;28;20033;-74
2022/04/03 03:24:45;;;;;;;6.65;5.57;;;3.70;37.90;;;;;;5009773;28;20424;-73
2022/04/03 03:27:11;;;;;;;7.88;6.45;;;3.70;38.00;;;;;;4998739;28;20138;-74
2022/04/03 03:29:38;;;;;;;7.88;6.53;;;3.70;38.00;;;;;;4993947;28;20022;-73
2022/04/03 03:32:05;;;;;;;6.80;6.07;;;3.60;37.90;;;;;;4989119;28;20025;-73
2022/04/03 03:34:31;;;;;;;6.68;6.03;;;3.70;38.20;;;;;;5007886;28;20119;-74
2022/04/03 03:36:57;;;;;;;6.68;5.95;;;3.60;38.00;;;;;;5008153;28;20029;-74
2022/04/03 03:39:24;;;;;;;6.15;5.55;;;3.60;38.10;;;;;;4996417;28;20046;-74
2022/04/03 03:41:50;;;;;;;6.93;5.90;;;3.60;38.10;;;;;;5015219;28;20029;-74
2022/04/03 03:44:16;;;;;;;6.60;5.57;;;3.50;38.00;;;;;;5004876;28;20056;-74
2022/04/03 03:46:42;;;;;;;8.43;6.35;;;3.50;38.10;;;;;;5018808;28;20492;-74
2022/04/03 03:49:09;;;;;;;7.25;6.07;;;3.50;38.10;;;;;;5010783;28;20225;-74
2022/04/03 03:51:36;;;;;;;6.25;5.65;;;3.50;38.20;;;;;;5011245;28;20030;-73
2022/04/03 03:54:03;;;;;;;8.23;5.75;;;3.50;38.20;;;;;;5011299;28;20469;-73
2022/04/03 03:56:29;;;;;;;8.27;5.60;;;3.50;38.30;;;;;;5009076;28;20484;-74
2022/04/03 03:58:55;;;;;;;6.30;5.68;;;3.50;38.30;;;;;;5012563;28;20037;-74
2022/04/03 04:01:22;;;;;;;6.43;5.78;;;3.40;38.10;;;;;;5009299;28;20040;-74
2022/04/03 04:03:48;;;;;;;7.00;5.47;;;3.50;38.30;;;;;;5001447;28;20042;-74
2022/04/03 04:06:14;;;;;;;6.50;5.80;;;3.40;38.10;;;;;;5010806;28;20371;-74
2022/04/03 04:08:42;;;;;;;8.02;5.72;;;3.40;38.10;;;;;;5012468;28;20112;-74
2022/04/03 04:11:08;;;;;;;6.35;5.30;;;3.40;38.20;;;;;;4985724;28;20088;-74
2022/04/03 04:13:34;;;;;;;6.85;5.60;;;3.40;38.20;;;;;;5018368;28;20090;-74
2022/04/03 04:16:00;;;;;;;6.32;5.60;;;3.40;38.30;;;;;;5008878;28;20041;-74
2022/04/03 04:18:26;;;;;;;8.27;5.65;;;3.30;38.80;;;;;;5008898;28;20122;-74
2022/04/03 04:20:53;;;;;;;8.30;6.03;;;3.30;38.30;;;;;;5010752;28;20133;-73
2022/04/03 04:23:19;;;;;;;5.75;5.25;;;3.30;38.30;;;;;;5010656;28;20141;-74
2022/04/03 04:25:48;;;;;;;6.82;6.20;;;3.20;38.20;;;;;;5010196;28;20113;-73
2022/04/03 04:28:14;;;;;;;7.05;5.95;;;3.20;38.30;;;;;;5005569;28;20488;-73
2022/04/03 04:30:40;;;;;;;7.28;5.60;;;3.20;38.30;;;;;;5010160;28;20034;-74
2022/04/03 04:33:06;;;;;;;9.02;6.03;;;3.20;38.40;;;;;;5006185;28;20129;-74
2022/04/03 04:35:35;;;;;;;6.78;5.55;;;3.10;38.30;;;;;;5020388;28;20128;-74
2022/04/03 04:38:02;;;;;;;6.88;5.80;;;3.10;38.30;;;;;;5007813;28;20107;-73
2022/04/03 04:40:29;;;;;;;6.18;5.57;;;3.10;38.30;;;;;;5009089;28;20061;-71
2022/04/03 04:42:58;;;;;;;6.78;6.18;;;3.10;38.40;;;;;;5009733;28;20033;-74
2022/04/03 04:45:27;;;;;;;6.95;5.70;;;3.10;38.50;;;;;;5010111;28;20484;-74
2022/04/03 04:47:59;;;;;;;5.90;5.22;;;3.00;38.30;;;;;;4992415;28;20035;-73
2022/04/03 04:50:27;;;;;;;7.47;6.20;;;3.00;38.40;;;;;;5007408;28;20034;-73
2022/04/03 04:52:54;;;;;;;7.28;5.78;;;3.00;38.40;;;;;;4993046;28;20886;-73
2022/04/03 04:55:20;;;;;;;6.90;5.60;;;3.00;38.50;;;;;;5009795;28;20045;-74
2022/04/03 04:57:54;;;;;;;7.45;5.90;;;3.00;38.50;;;;;;4990838;28;20432;-74
2022/04/03 05:00:22;;;;;;;6.35;5.75;;;3.00;38.60;;;;;;5004266;28;20112;-73
2022/04/03 05:02:49;;;;;;;6.40;5.80;;;3.00;38.60;;;;;;4993286;28;20040;-73
2022/04/03 05:05:17;;;;;;;6.30;5.25;;;3.00;39.20;;;;;;5003072;28;20164;-71
2022/04/03 05:07:44;;;;;;;6.68;5.43;;;3.00;38.70;;;;;;5004749;28;20025;-73
2022/04/03 05:10:13;;;;;;;7.80;5.65;;;3.00;38.70;;;;;;5016816;28;20093;-72
2022/04/03 05:12:39;;;;;;;7.55;5.85;;;2.90;38.50;;;;;;5008336;28;20052;-72
2022/04/03 05:15:10;;;;;;;7.22;6.20;;;3.00;38.80;;;;;;5019222;28;20086;-73
2022/04/03 05:17:36;;;;;;;9.57;5.63;;;2.90;38.60;;;;;;4996341;28;20572;-72
2022/04/03 05:20:03;;;;;;;6.28;5.68;;;2.90;38.60;;;;;;4990859;28;20056;-73
2022/04/03 05:22:29;;;;;;;7.40;6.05;;;2.90;38.60;;;;;;5014641;28;20495;-73
2022/04/03 05:24:56;;;;;;;6.38;5.75;;;2.90;38.70;;;;;;5003746;28;20029;-72
2022/04/03 05:27:22;;;;;;;7.32;5.80;;;2.90;38.70;;;;;;5000594;28;20018;-72
2022/04/03 05:29:48;;;;;;;7.68;5.72;;;2.90;38.80;;;;;;5003974;28;20029;-74
2022/04/03 05:32:14;;;;;;;6.47;5.80;;;2.90;38.90;;;;;;4996765;28;20053;-73
2022/04/03 05:34:40;;;;;;;6.78;5.85;;;2.80;38.70;;;;;;4993505;28;20030;-74
2022/04/03 05:37:07;;;;;;;8.05;6.10;;;2.80;38.80;;;;;;5001975;28;20412;-74
2022/04/03 05:39:33;;;;;;;6.32;5.72;;;2.80;38.80;;;;;;4990237;28;20120;-74
2022/04/03 05:41:58;;;;;;;7.40;5.75;;;2.80;38.80;;;;;;5003296;28;20481;-74
2022/04/03 05:44:25;;;;;;;6.30;5.70;;;2.80;38.90;;;;;;5002260;28;20022;-75
2022/04/03 05:46:51;;;;;;;6.60;5.88;;;2.80;38.90;;;;;;4979418;28;20034;-72
2022/04/03 05:49:17;;;;;;;7.18;6.43;;;2.80;39.00;;;;;;5004482;28;20026;-72
2022/04/03 05:51:44;;;;;;;7.10;6.40;;;2.80;39.00;;;;;;4998620;28;20026;-72
2022/04/03 05:54:10;;;;;;;7.60;6.40;;;2.80;39.00;;;;;;5007447;28;20034;-72
2022/04/03 05:56:37;;;;;;;7.10;6.18;;;2.80;39.10;;;;;;4984455;28;20033;-73
2022/04/03 05:59:03;;;;;;;8.60;6.07;;;2.80;39.10;;;;;;4996779;28;20049;-73
2022/04/03 06:01:29;;;;;;;7.97;6.38;;;2.80;39.10;;;;;;4997344;28;20030;-73
2022/04/03 06:03:56;;;;;;;7.88;7.07;;;2.80;39.30;;;;;;4986547;28;20065;-74
2022/04/03 06:06:22;;;;;;;6.97;6.28;;;2.90;39.70;;;;;;4989615;28;20034;-73
2022/04/03 06:08:48;;;;;;;8.73;6.25;;;3.00;40.00;;;;;;5003086;28;20037;-72
2022/04/03 06:11:14;;;;;;;10.82;7.55;;;3.00;39.90;;;;;;5003102;28;20037;-73
2022/04/03 06:13:40;;;;;;;7.88;7.07;;;3.00;39.80;;;;;;5005010;28;20233;-72
2022/04/03 06:16:06;;;;;;;9.18;7.82;;;3.10;40.00;;;;;;4983171;28;20169;-72
2022/04/03 06:18:32;;;;;;;7.68;6.88;;;3.10;40.00;;;;;;5007297;28;20126;-77
2022/04/03 06:20:58;;;;;;;8.10;7.00;;;3.10;39.90;;;;;;5005666;28;20042;-77
2022/04/03 06:23:24;;;;;;;9.38;6.18;;;3.20;40.00;;;;;;5000114;28;20168;-76
2022/04/03 06:25:55;;;;;;;8.93;6.80;;;3.40;40.20;;;;;;4995814;28;20120;-74
2022/04/03 06:28:21;;;;;;;7.43;6.32;;;3.50;40.10;;;;;;5004809;28;20033;-78
2022/04/03 06:30:48;;;;;;;8.52;6.63;;;3.70;40.10;;;;;;5000482;28;20022;-75
2022/04/03 06:33:16;;;;;;;8.85;7.47;;;3.90;40.20;;;;;;4994263;28;20034;-75
2022/04/03 06:35:43;;;;;;;8.18;6.45;;;4.00;40.60;;;;;;5004519;28;20051;-76
2022/04/03 06:38:09;;;;;;;10.45;7.60;;;4.20;40.10;;;;;;5004137;28;20133;-76
2022/04/03 06:40:36;;;;;;;7.78;7.05;;;4.40;40.00;;;;;;5001829;28;20038;-76
2022/04/03 06:43:02;;;;;;;7.55;6.47;;;4.60;40.10;;;;;;5002135;28;20301;-75
2022/04/03 06:45:28;;;;;;;7.95;7.18;;;4.80;40.10;;;;;;4997573;28;20076;-75
2022/04/03 06:47:58;;;;;;;9.25;8.10;;;5.00;40.10;;;;;;4989025;28;20034;-78
2022/04/03 06:50:24;;;;;;;9.57;7.43;;;5.30;40.20;;;;;;5000409;28;20026;-73
2022/04/03 06:52:50;;;;;;;9.15;7.97;;;5.50;40.10;;;;;;5000703;28;20360;-76
2022/04/03 06:55:16;;;;;;;8.88;7.72;;;5.70;40.20;;;;;;5004643;28;20506;-75
2022/04/03 06:57:42;;;;;;;9.95;7.95;;;6.00;40.20;;;;;;4977746;28;20054;-75
2022/04/03 07:00:09;;;;;;;8.10;7.30;;;6.20;40.00;;;;;;4959452;28;20026;-73
2022/04/03 07:02:35;;;;;;;10.00;8.95;;;6.40;39.90;;;;;;4984781;28;20057;-75
2022/04/03 07:05:02;;;;;;;8.80;7.90;;;6.60;39.80;;;;;;4995136;28;20040;-77
2022/04/03 07:07:28;;;;;;;9.23;8.32;;;6.80;39.90;;;;;;4982603;28;20116;-74
2022/04/03 07:09:54;;;;;;;9.32;8.43;;;6.80;39.80;;;;;;4982964;28;20451;-77
2022/04/03 07:12:22;;;;;;;9.13;8.18;;;6.80;40.40;;;;;;5001763;28;20054;-77
2022/04/03 07:14:48;;;;;;;9.30;8.18;;;6.70;39.70;;;;;;5004644;28;20073;-77
2022/04/03 07:17:14;;;;;;;9.88;8.45;;;6.70;39.90;;;;;;4994181;28;20049;-75
2022/04/03 07:19:39;;;;;;;10.13;8.48;;;6.70;40.00;;;;;;4978839;28;20257;-74
2022/04/03 07:22:05;;;;;;;11.75;9.10;;;6.70;40.10;;;;;;4995617;28;20014;-75
2022/04/03 07:24:31;;;;;;;9.80;8.80;;;6.60;39.90;;;;;;4994541;28;20058;-78
2022/04/03 07:26:57;;;;;;;10.60;9.02;;;6.70;40.20;;;;;;4993851;28;20026;-77
2022/04/03 07:29:24;;;;;;;10.95;8.52;;;6.70;40.20;;;;;;4970973;28;20030;-74
2022/04/03 07:31:50;;;;;;;10.00;8.50;;;6.70;40.20;;;;;;4992134;28;20505;-74
2022/04/03 07:34:17;;;;;;;10.55;9.45;;;6.80;40.40;;;;;;5000098;28;20092;-75
2022/04/03 07:36:43;;;;;;;10.05;8.90;;;6.70;40.20;;;;;;5003614;28;20125;-74
2022/04/03 07:39:09;;;;;;;10.32;9.27;;;6.80;40.30;;;;;;5001284;28;20056;-77
2022/04/03 07:41:37;;;;;;;10.00;8.20;;;6.80;40.20;;;;;;4990114;28;20076;-75
2022/04/03 07:44:05;;;;;;;13.48;9.30;;;6.90;40.30;;;;;;5009005;28;20034;-75
2022/04/03 07:46:31;;;;;;;9.30;8.38;;;7.00;40.20;;;;;;4991102;28;20053;-75
2022/04/03 07:48:57;;;;;;;10.07;9.05;;;7.30;40.20;;;;;;4987189;28;20125;-75
2022/04/03 07:51:23;;;;;;;10.48;8.95;;;7.50;40.00;;;;;;5004703;28;20026;-74
2022/04/03 07:53:50;;;;;;;10.70;9.48;;;7.70;39.90;;;;;;4986642;28;20084;-75
2022/04/03 07:56:16;;;;;;;11.70;9.43;;;7.90;39.80;;;;;;5013860;28;20037;-75
2022/04/03 07:58:42;;;;;;;9.30;8.35;;;8.10;39.80;;;;;;4996656;28;20042;-75
2022/04/03 08:01:08;;;;;;;9.77;8.63;;;8.20;39.60;;;;;;5003840;28;20650;-76
2022/04/03 08:03:34;;;;;;;10.15;9.10;;;8.30;39.60;;;;;;5012457;28;20112;-75
2022/04/03 08:06:00;;;;;;;9.40;8.00;;;8.30;39.60;;;;;;5005427;28;20030;-75
2022/04/03 08:08:25;;;;;;;10.23;7.95;;;8.30;39.80;;;;;;5000236;28;20030;-76
2022/04/03 08:10:52;;;;;;;8.90;8.05;;;8.20;40.00;;;;;;5003868;28;20045;-78
2022/04/03 08:13:20;;;;;;;9.82;8.68;;;8.10;40.10;;;;;;5001416;28;20088;-75
2022/04/03 08:15:46;;;;;;;9.80;8.13;;;8.00;40.80;;;;;;5015615;28;20508;-78
2022/04/03 08:18:12;;;;;;;9.00;8.10;;;8.00;40.50;;;;;;4999017;28;20353;-76
2022/04/03 08:20:38;;;;;;;10.52;8.45;;;7.90;40.50;;;;;;4983650;28;20045;-76
2022/04/03 08:23:05;;;;;;;9.68;7.85;;;7.90;40.70;;;;;;4984083;28;20035;-79
2022/04/03 08:25:32;;;;;;;10.23;7.57;;;7.90;40.90;;;;;;5004287;28;20412;-78
2022/04/03 08:28:00;;;;;;;10.25;8.32;;;7.80;40.90;;;;;;5003896;28;20061;-78
2022/04/03 08:30:32;;;;;;;8.52;6.88;;;7.90;41.10;;;;;;5006570;28;20466;-82
2022/04/03 08:32:58;;;;;;;9.27;6.05;;;7.90;41.40;;;;;;5002976;28;20034;-77
2022/04/03 08:35:26;;;;;;;7.20;6.03;;;8.00;42.20;;;;;;5008589;28;20123;-77
2022/04/03 08:37:53;;;;;;;8.10;6.20;;;8.20;43.00;;;;;;4991949;28;20493;-78
2022/04/03 08:40:22;;;;;;;7.50;5.93;;;8.30;43.10;;;;;;5005307;28;20040;-78
2022/04/03 08:42:54;;;;;;;7.35;6.25;;;8.50;43.30;;;;;;5004550;28;20169;-77
2022/04/03 08:45:22;;;;;;;8.10;7.10;;;8.60;43.20;;;;;;4980516;28;20030;-75
2022/04/03 08:47:57;;;;;;;8.48;6.88;;;8.60;43.00;;;;;;4987952;28;20034;-80
2022/04/03 08:50:28;;;;;;;7.40;5.90;;;8.70;43.10;;;;;;4990424;28;20041;-77
2022/04/03 08:52:57;;;;;;;8.70;6.95;;;8.70;42.90;;;;;;5003558;28;20420;-78
2022/04/03 08:55:23;;;;;;;7.60;6.90;;;8.80;43.00;;;;;;5008998;28;20045;-75
2022/04/03 08:57:50;;;;;;;9.63;7.25;;;8.90;43.00;;;;;;5009944;28;20079;-76
2022/04/03 09:00:16;;;;;;;9.23;6.82;;;8.90;42.80;;;;;;5000643;28;20048;-81
2022/04/03 09:02:47;;;;;;;8.48;6.32;;;8.90;42.60;;;;;;5006534;28;20038;-77
2022/04/03 09:05:14;;;;;;;8.07;6.57;;;8.90;42.50;;;;;;4992191;28;20117;-77
2022/04/03 09:07:40;;;;;;;8.80;6.93;;;8.90;42.50;;;;;;5010547;28;20105;-78
2022/04/03 09:10:16;;;;;;;7.93;7.13;;;8.90;42.50;;;;;;4989822;28;20469;-77
2022/04/03 09:12:50;;;;;;;8.70;7.25;;;8.90;42.50;;;;;;5005543;28;20088;-77
2022/04/03 09:15:18;;;;;;;8.38;6.43;;;8.90;42.50;;;;;;4996006;28;20063;-78
2022/04/03 09:17:46;;;;;;;7.22;6.13;;;8.90;42.40;;;;;;4987736;28;20049;-78
2022/04/03 09:20:27;;;;;;;11.15;6.30;;;9.00;42.50;;;;;;5003825;28;20036;-76
2022/04/03 09:22:56;;;;;;;7.03;5.75;;;9.00;42.30;;;;;;5012415;28;20036;-76
2022/04/03 09:25:32;;;;;;;8.85;6.45;;;9.00;42.20;;;;;;5013032;28;20030;-75
2022/04/03 09:27:59;;;;;;;6.55;5.70;;;9.00;42.00;;;;;;5006642;28;20025;-76
2022/04/03 09:30:37;;;;;;;6.03;5.40;;;9.00;42.00;;;;;;5004418;28;20038;-75
2022/04/03 09:33:06;;;;;;;5.97;4.95;;;9.10;42.20;;;;;;5004089;28;20030;-78
2022/04/03 09:36:02;;;;;;;8.38;5.28;;;9.10;42.20;;;;;;4999641;28;20517;-78
2022/04/03 09:38:32;;;;;;;7.43;5.32;;;9.10;42.00;;;;;;5001137;28;20520;-78
2022/04/03 09:41:00;;;;;;;6.80;5.30;;;9.10;42.00;;;;;;4968845;28;20333;-77
2022/04/03 09:43:38;;;;;;;6.82;5.55;;;9.10;41.90;;;;;;5002019;28;20114;-78
2022/04/03 09:46:06;;;;;;;6.63;5.60;;;9.10;41.80;;;;;;5003919;28;20532;-78
2022/04/03 09:48:35;;;;;;;8.48;5.35;;;9.10;41.90;;;;;;5013975;28;20037;-78
2022/04/03 09:51:05;;;;;;;6.20;5.30;;;9.10;41.80;;;;;;4995727;28;20456;-78
2022/04/03 09:54:01;;;;;;;8.75;5.90;;;9.20;41.90;;;;;;5000459;28;20037;-78
2022/04/03 09:56:31;;;;;;;7.88;5.88;;;9.20;41.90;;;;;;4988798;28;20128;-77
2022/04/03 09:59:06;;;;;;;7.70;6.00;;;9.20;41.90;;;;;;4999089;28;20144;-78
2022/04/03 10:01:38;;;;;;;6.43;5.57;;;9.20;41.70;;;;;;4985186;28;20044;-77
2022/04/03 10:04:10;;;;;;;6.93;5.97;;;9.20;41.70;;;;;;4999596;28;20544;-77
2022/04/03 10:06:40;;;;;;;11.45;7.55;;;9.20;41.60;;;;;;4987035;28;20034;-76
2022/04/03 10:09:11;;;;;;;7.43;6.50;;;9.20;41.60;;;;;;5002416;28;20431;-77
2022/04/03 10:11:38;;;;;;;13.77;7.13;;;9.30;41.80;;;;;;5012028;28;20033;-74
2022/04/03 10:14:06;;;;;;;7.22;6.53;;;9.30;41.70;;;;;;5000908;28;20025;-78
2022/04/03 10:16:31;;;;;;;10.63;7.93;;;9.30;41.60;;;;;;5002165;28;20034;-77
2022/04/03 10:18:57;;;;;;;7.57;6.50;;;9.30;41.60;;;;;;4996039;28;20113;-77
2022/04/03 10:21:37;;;;;;;13.88;7.47;;;9.40;41.70;;;;;;4973189;28;20120;-77
2022/04/03 10:24:23;;;;;;;8.15;6.97;;;9.40;41.60;;;;;;5008096;28;20049;-77
2022/04/03 10:27:12;;;;;;;8.20;6.85;;;9.40;42.10;;;;;;5000083;28;20032;-77
2022/04/03 10:29:40;;;;;;;7.85;7.05;;;9.50;41.60;;;;;;5009269;28;20464;-77
2022/04/03 10:32:07;;;;;;;8.07;7.10;;;9.60;41.60;;;;;;4978383;28;20061;-76
2022/04/03 10:34:47;;;;;;;9.57;6.93;;;9.60;41.50;;;;;;5001371;28;20622;-75
2022/04/03 10:37:34;;;;;;;7.47;6.68;;;9.60;41.30;;;;;;5002379;28;20022;-76
2022/04/03 10:40:08;;;;;;;6.60;5.90;;;9.70;41.80;;;;;;5013150;28;20100;-76
2022/04/03 10:42:47;;;;;;;;;;;9.80;41.30;;;;;;5022990;28;20053;-75
2022/04/03 10:45:12;;;;;;;7.32;6.63;;;9.80;41.10;;;;;;5025406;28;19935;-77
2022/04/03 10:47:42;;;;;;;8.88;6.80;;;9.80;41.10;;;;;;5011625;28;20475;-77
2022/04/03 10:50:21;;;;;;;9.57;7.18;;;9.80;40.80;;;;;;5006182;28;20551;-76
2022/04/03 10:52:47;;;;;;;8.35;7.47;;;9.80;40.60;;;;;;4999126;28;20045;-76
2022/04/03 10:55:28;;;;;;;11.73;8.50;;;9.90;40.60;;;;;;5013178;28;20135;-76
2022/04/03 10:58:02;;;;;;;8.52;7.32;;;9.90;40.40;;;;;;5013095;28;20023;-76
2022/04/03 11:00:28;;;;;;;7.97;6.38;;;9.90;40.30;;;;;;5022008;28;20547;-76
2022/04/03 11:02:56;;;;;;;7.30;6.60;;;9.90;40.10;;;;;;5018196;28;20148;-77
2022/04/03 11:05:22;;;;;;;7.35;6.35;;;10.00;40.00;;;;;;5024155;28;20469;-76
2022/04/03 11:08:00;;;;;;;7.47;6.50;;;10.10;40.00;;;;;;5016224;28;20061;-75
2022/04/03 11:10:48;;;;;;;7.65;6.18;;;10.10;39.70;;;;;;5005520;28;20048;-75
2022/04/03 11:13:21;;;;;;;7.13;6.43;;;10.20;39.60;;;;;;5024278;28;20040;-77
2022/04/03 11:15:56;;;;;;;6.85;5.93;;;10.20;39.60;;;;;;4989955;28;20510;-76
2022/04/03 11:18:45;;;;;;;5.00;4.43;;;10.30;39.60;;;;;;5022172;28;20073;-77
2022/04/03 11:21:34;;;;;;;4.93;4.30;;;10.30;39.30;;;;;;5024282;28;20033;-76
2022/04/03 11:24:10;;;;;;;3.70;3.40;;;10.30;39.00;;;;;;5012810;28;20045;-76
2022/04/03 11:26:38;;;;;;;3.70;3.40;;;10.40;39.00;;;;;;5006806;28;20068;-76
2022/04/03 11:29:06;;;;;;;3.47;3.17;;;10.50;38.90;;;;;;5021662;28;20029;-76
2022/04/03 11:31:33;;;;;;;4.57;3.47;;;10.50;38.60;;;;;;5007980;28;20022;-77
2022/04/03 11:34:00;;;;;;;3.88;3.20;;;10.50;38.20;;;;;;5024215;28;20087;-76
2022/04/03 11:36:28;;;;;;;3.42;3.13;;;10.60;38.10;;;;;;5021742;28;20041;-77
2022/04/03 11:38:55;;;;;;;3.88;3.30;;;10.70;38.00;;;;;;5016915;28;20061;-77
2022/04/03 11:41:27;;;;;;;4.03;3.63;;;11.00;38.80;;;;;;5023860;28;20053;-78
2022/04/03 11:43:57;;;;;;;;;;;11.30;38.20;;;;;;5024038;28;20072;-76
2022/04/03 11:46:23;;;;;;;4.30;3.90;;;11.60;38.00;;;;;;5024636;28;19924;-76
2022/04/03 11:48:49;;;;;;;5.80;5.20;;;12.00;38.20;;;;;;4996710;28;20544;-76
2022/04/03 11:51:18;;;;;;;6.57;5.32;;;12.30;37.90;;;;;;5000136;28;20112;-76
2022/04/03 11:53:47;;;;;;;6.20;5.40;;;12.60;37.90;;;;;;5022034;28;20094;-76
2022/04/03 11:56:15;;;;;;;5.93;4.72;;;12.80;37.70;;;;;;5027883;28;20045;-76
2022/04/03 11:58:44;;;;;;;5.72;4.85;;;12.90;37.50;;;;;;5022144;28;20420;-76
2022/04/03 12:01:10;;;;;;;5.28;4.78;;;13.00;37.30;;;;;;5018554;28;20072;-76
2022/04/03 12:03:37;;;;;;;5.95;4.68;;;13.20;37.40;;;;;;5021646;28;20124;-76
2022/04/03 12:06:16;;;;;;;3.72;2.90;;;13.30;37.90;;;;;;5028617;28;20037;-76
2022/04/03 12:08:43;;;;;;;2.95;2.40;;;13.50;37.20;;;;;;5014782;28;20033;-76
2022/04/03 12:11:24;;;;;;;2.15;1.95;;;13.70;37.20;;;;;;5029504;28;20684;-76
2022/04/03 12:13:55;;;;;;;6.47;4.95;;;13.90;36.80;;;;;;5010474;28;20030;-76
2022/04/03 12:16:32;;;;;;;6.60;5.65;;;14.10;36.80;;;;;;5032035;28;20068;-75
2022/04/03 12:19:06;;;;;;;6.10;5.13;;;14.20;36.70;;;;;;5027890;28;20033;-76
2022/04/03 12:21:51;;;;;;;5.53;4.95;;;14.50;36.90;;;;;;5026180;28;20034;-76
2022/04/03 12:24:22;;;;;;;4.55;4.15;;;14.70;36.70;;;;;;5038220;28;20033;-76
2022/04/03 12:27:12;;;;;;;7.50;4.70;;;14.90;36.80;;;;;;5021793;28;20045;-78
2022/04/03 12:29:41;;;;;;;4.82;4.30;;;15.10;36.60;;;;;;5031486;28;20044;-77
2022/04/03 12:32:09;;;;;;;4.75;4.32;;;15.30;36.90;;;;;;5024118;28;20037;-78
2022/04/03 12:34:37;;;;;;;5.18;4.68;;;15.40;36.70;;;;;;5027321;28;20245;-78
2022/04/03 12:37:04;;;;;;;6.00;5.40;;;15.60;36.60;;;;;;5011805;28;20029;-79
2022/04/03 12:39:41;;;;;;;4.13;3.78;;;15.70;36.50;;;;;;5002105;28;20091;-78
2022/04/03 12:42:26;;;;;;;4.07;3.67;;;15.80;36.20;;;;;;5027702;28;20026;-77
2022/04/03 12:45:03;;;;;;;4.35;3.88;;;15.90;36.10;;;;;;5009259;28;20503;-77
2022/04/03 12:47:40;;;;;;;3.15;2.55;;;15.90;35.90;;;;;;5027803;28;20060;-78
2022/04/03 12:50:06;;;;;;;3.75;3.42;;;16.00;35.70;;;;;;5028838;28;20116;-77
2022/04/03 12:53:02;;;;;;;3.58;3.20;;;16.00;35.60;;;;;;5026755;28;20152;-77
2022/04/03 12:55:36;;;;;;;3.00;2.70;;;16.10;34.90;;;;;;5007319;28;20523;-78
2022/04/03 13:00:56;;;;;;;3.70;2.60;;;16.30;35.20;;;;;;5025291;28;20037;-78
2022/04/03 13:03:24;;;;;;;3.90;2.40;;;16.40;34.90;;;;;;5006566;28;20041;-78
2022/04/03 13:05:52;;;;;;;3.25;2.95;;;16.40;34.70;;;;;;5016140;28;20037;-78